sensor_id;sensor_type;location;lat;lon;timestamp;temperature;humidity
53310;DHT22;39197;53.200;5.792;2024-02-21T00:00:46;8.80;99.90
53310;DHT22;39197;53.200;5.792;2024-02-21T00:03:12;9.00;99.90
53310;DHT22;39197;53.200;5.792;2024-02-21T00:05:37;8.90;99.90
53310;DHT22;39197;53.200;5.792;2024-02-21T00:08:03;9.00;99.90
53310;DHT22;39197;53.200;5.792;2024-02-21T00:10:29;8.90;99.90
53310;DHT22;39197;53.200;5.792;2024-02-21T00:12:57;9.00;99.90
53310;DHT22;39197;53.200;5.792;2024-02-21T00:15:22;8.80;99.90
53310;DHT22;39197;53.200;5.792;2024-02-21T00:17:48;9.00;99.90
53310;DHT22;39197;53.200;5.792;2024-02-21T00:20:14;8.80;99.90
53310;DHT22;39197;53.200;5.792;2024-02-21T00:22:39;8.90;99.90
53310;DHT22;39197;53.200;5.792;2024-02-21T00:25:05;8.90;99.90
53310;DHT22;39197;53.200;5.792;2024-02-21T00:27:31;9.00;99.90
53310;DHT22;39197;53.200;5.792;2024-02-21T00:29:57;9.00;99.90
53310;DHT22;39197;53.200;5.792;2024-02-21T00:32:23;8.90;99.90
53310;DHT22;39197;53.200;5.792;2024-02-21T00:34:49;9.00;99.90
53310;DHT22;39197;53.200;5.792;2024-02-21T00:37:14;9.00;99.90
53310;DHT22;39197;53.200;5.792;2024-02-21T00:39:40;8.90;99.90
53310;DHT22;39197;53.200;5.792;2024-02-21T00:42:06;8.90;99.90
53310;DHT22;39197;53.200;5.792;2024-02-21T00:44:32;9.00;99.90
53310;DHT22;39197;53.200;5.792;2024-02-21T00:46:58;8.90;99.90
53310;DHT22;39197;53.200;5.792;2024-02-21T00:49:24;8.90;99.90
53310;DHT22;39197;53.200;5.792;2024-02-21T00:51:49;8.90;99.90
53310;DHT22;39197;53.200;5.792;2024-02-21T00:54:15;8.80;99.90
53310;DHT22;39197;53.200;5.792;2024-02-21T00:56:41;8.90;99.90
53310;DHT22;39197;53.200;5.792;2024-02-21T00:59:07;8.80;99.90
53310;DHT22;39197;53.200;5.792;2024-02-21T01:01:32;8.80;99.90
53310;DHT22;39197;53.200;5.792;2024-02-21T01:03:58;8.80;99.90
53310;DHT22;39197;53.200;5.792;2024-02-21T01:06:24;8.70;99.90
53310;DHT22;39197;53.200;5.792;2024-02-21T01:08:49;8.80;99.90
53310;DHT22;39197;53.200;5.792;2024-02-21T01:11:15;8.80;99.90
53310;DHT22;39197;53.200;5.792;2024-02-21T01:13:41;8.70;99.90
53310;DHT22;39197;53.200;5.792;2024-02-21T01:16:07;8.80;99.90
53310;DHT22;39197;53.200;5.792;2024-02-21T01:18:33;8.70;99.90
53310;DHT22;39197;53.200;5.792;2024-02-21T01:20:59;8.60;99.90
53310;DHT22;39197;53.200;5.792;2024-02-21T01:23:25;8.70;99.90
53310;DHT22;39197;53.200;5.792;2024-02-21T01:25:51;8.70;99.90
53310;DHT22;39197;53.200;5.792;2024-02-21T01:28:17;8.70;99.90
53310;DHT22;39197;53.200;5.792;2024-02-21T01:30:43;8.70;99.90
53310;DHT22;39197;53.200;5.792;2024-02-21T01:33:08;8.70;99.90
53310;DHT22;39197;53.200;5.792;2024-02-21T01:35:35;8.70;99.90
53310;DHT22;39197;53.200;5.792;2024-02-21T01:38:01;8.80;99.90
53310;DHT22;39197;53.200;5.792;2024-02-21T01:40:27;8.80;99.90
53310;DHT22;39197;53.200;5.792;2024-02-21T01:42:55;8.70;99.90
53310;DHT22;39197;53.200;5.792;2024-02-21T01:45:20;8.60;99.90
53310;DHT22;39197;53.200;5.792;2024-02-21T01:47:46;8.60;99.90
53310;DHT22;39197;53.200;5.792;2024-02-21T01:50:13;8.70;99.90
53310;DHT22;39197;53.200;5.792;2024-02-21T01:52:40;8.70;99.90
53310;DHT22;39197;53.200;5.792;2024-02-21T01:55:06;8.60;99.90
53310;DHT22;39197;53.200;5.792;2024-02-21T01:57:33;8.80;99.90
53310;DHT22;39197;53.200;5.792;2024-02-21T01:59:59;8.70;99.90
53310;DHT22;39197;53.200;5.792;2024-02-21T02:02:24;8.60;99.90
53310;DHT22;39197;53.200;5.792;2024-02-21T02:04:50;8.60;99.90
53310;DHT22;39197;53.200;5.792;2024-02-21T02:07:17;8.60;99.90
53310;DHT22;39197;53.200;5.792;2024-02-21T02:09:43;8.60;99.90
53310;DHT22;39197;53.200;5.792;2024-02-21T02:12:08;8.60;99.90
53310;DHT22;39197;53.200;5.792;2024-02-21T02:14:34;8.50;99.90
53310;DHT22;39197;53.200;5.792;2024-02-21T02:16:59;8.70;99.90
53310;DHT22;39197;53.200;5.792;2024-02-21T02:19:25;8.70;99.90
53310;DHT22;39197;53.200;5.792;2024-02-21T02:21:54;8.60;99.90
53310;DHT22;39197;53.200;5.792;2024-02-21T02:24:24;8.70;99.90
53310;DHT22;39197;53.200;5.792;2024-02-21T02:26:49;8.70;99.90
53310;DHT22;39197;53.200;5.792;2024-02-21T02:29:15;8.70;99.90
53310;DHT22;39197;53.200;5.792;2024-02-21T02:31:42;8.60;99.90
53310;DHT22;39197;53.200;5.792;2024-02-21T02:34:07;8.60;99.90
53310;DHT22;39197;53.200;5.792;2024-02-21T02:36:33;8.70;99.90
53310;DHT22;39197;53.200;5.792;2024-02-21T02:38:59;8.80;99.90
53310;DHT22;39197;53.200;5.792;2024-02-21T02:41:25;8.70;99.90
53310;DHT22;39197;53.200;5.792;2024-02-21T02:43:50;8.70;99.90
53310;DHT22;39197;53.200;5.792;2024-02-21T02:46:16;8.60;99.90
53310;DHT22;39197;53.200;5.792;2024-02-21T02:48:41;8.70;99.90
53310;DHT22;39197;53.200;5.792;2024-02-21T02:51:07;8.80;99.90
53310;DHT22;39197;53.200;5.792;2024-02-21T02:53:33;8.80;99.90
53310;DHT22;39197;53.200;5.792;2024-02-21T02:55:58;8.70;99.90
53310;DHT22;39197;53.200;5.792;2024-02-21T02:58:24;8.70;99.90
53310;DHT22;39197;53.200;5.792;2024-02-21T03:00:49;8.60;99.90
53310;DHT22;39197;53.200;5.792;2024-02-21T03:03:15;8.70;99.90
53310;DHT22;39197;53.200;5.792;2024-02-21T03:05:40;8.70;99.90
53310;DHT22;39197;53.200;5.792;2024-02-21T03:08:06;8.60;99.90
53310;DHT22;39197;53.200;5.792;2024-02-21T03:10:35;8.60;99.90
53310;DHT22;39197;53.200;5.792;2024-02-21T03:13:01;8.70;99.90
53310;DHT22;39197;53.200;5.792;2024-02-21T03:15:27;8.70;99.90
53310;DHT22;39197;53.200;5.792;2024-02-21T03:17:52;8.70;99.90
53310;DHT22;39197;53.200;5.792;2024-02-21T03:20:18;8.60;99.90
53310;DHT22;39197;53.200;5.792;2024-02-21T03:22:45;8.70;99.90
53310;DHT22;39197;53.200;5.792;2024-02-21T03:25:11;8.70;99.90
53310;DHT22;39197;53.200;5.792;2024-02-21T03:27:38;8.60;99.90
53310;DHT22;39197;53.200;5.792;2024-02-21T03:30:04;8.60;99.90
53310;DHT22;39197;53.200;5.792;2024-02-21T03:32:30;8.70;99.90
53310;DHT22;39197;53.200;5.792;2024-02-21T03:34:55;8.70;99.90
53310;DHT22;39197;53.200;5.792;2024-02-21T03:37:21;8.80;99.90
53310;DHT22;39197;53.200;5.792;2024-02-21T03:39:47;8.80;99.90
53310;DHT22;39197;53.200;5.792;2024-02-21T03:42:12;8.70;99.90
53310;DHT22;39197;53.200;5.792;2024-02-21T03:44:38;8.70;99.90
53310;DHT22;39197;53.200;5.792;2024-02-21T03:47:04;8.90;99.90
53310;DHT22;39197;53.200;5.792;2024-02-21T03:49:29;8.70;99.90
53310;DHT22;39197;53.200;5.792;2024-02-21T03:51:55;8.60;99.90
53310;DHT22;39197;53.200;5.792;2024-02-21T03:54:20;8.80;99.90
53310;DHT22;39197;53.200;5.792;2024-02-21T03:56:47;8.70;99.90
53310;DHT22;39197;53.200;5.792;2024-02-21T03:59:13;8.70;99.90
53310;DHT22;39197;53.200;5.792;2024-02-21T04:01:38;8.70;99.90
53310;DHT22;39197;53.200;5.792;2024-02-21T04:04:04;8.80;99.90
53310;DHT22;39197;53.200;5.792;2024-02-21T04:06:30;8.70;99.90
53310;DHT22;39197;53.200;5.792;2024-02-21T04:08:56;8.90;99.90
53310;DHT22;39197;53.200;5.792;2024-02-21T04:11:22;8.80;99.90
53310;DHT22;39197;53.200;5.792;2024-02-21T04:13:47;8.80;99.90
53310;DHT22;39197;53.200;5.792;2024-02-21T04:16:16;8.80;99.90
53310;DHT22;39197;53.200;5.792;2024-02-21T04:18:41;8.80;99.90
53310;DHT22;39197;53.200;5.792;2024-02-21T04:21:07;8.60;99.90
53310;DHT22;39197;53.200;5.792;2024-02-21T04:23:33;8.80;99.90
53310;DHT22;39197;53.200;5.792;2024-02-21T04:25:58;8.70;99.90
53310;DHT22;39197;53.200;5.792;2024-02-21T04:28:24;8.70;99.90
53310;DHT22;39197;53.200;5.792;2024-02-21T04:30:50;8.70;99.90
53310;DHT22;39197;53.200;5.792;2024-02-21T04:33:15;8.70;99.90
53310;DHT22;39197;53.200;5.792;2024-02-21T04:35:41;8.80;99.90
53310;DHT22;39197;53.200;5.792;2024-02-21T04:38:06;8.70;99.90
53310;DHT22;39197;53.200;5.792;2024-02-21T04:40:32;8.70;99.90
53310;DHT22;39197;53.200;5.792;2024-02-21T04:42:58;8.60;99.90
53310;DHT22;39197;53.200;5.792;2024-02-21T04:45:23;8.70;99.90
53310;DHT22;39197;53.200;5.792;2024-02-21T04:47:49;8.60;99.90
53310;DHT22;39197;53.200;5.792;2024-02-21T04:50:14;8.70;99.90
53310;DHT22;39197;53.200;5.792;2024-02-21T04:52:40;8.60;99.90
53310;DHT22;39197;53.200;5.792;2024-02-21T04:55:06;8.60;99.90
53310;DHT22;39197;53.200;5.792;2024-02-21T04:57:32;8.60;99.90
53310;DHT22;39197;53.200;5.792;2024-02-21T04:59:58;8.70;99.90
53310;DHT22;39197;53.200;5.792;2024-02-21T05:02:23;8.70;99.90
53310;DHT22;39197;53.200;5.792;2024-02-21T05:04:50;8.70;99.90
53310;DHT22;39197;53.200;5.792;2024-02-21T05:07:15;8.60;99.90
53310;DHT22;39197;53.200;5.792;2024-02-21T05:09:42;8.50;99.90
53310;DHT22;39197;53.200;5.792;2024-02-21T05:12:08;8.60;99.90
53310;DHT22;39197;53.200;5.792;2024-02-21T05:14:34;8.60;99.90
53310;DHT22;39197;53.200;5.792;2024-02-21T05:16:59;8.60;99.90
53310;DHT22;39197;53.200;5.792;2024-02-21T05:19:25;8.50;99.90
53310;DHT22;39197;53.200;5.792;2024-02-21T05:21:51;8.60;99.90
53310;DHT22;39197;53.200;5.792;2024-02-21T05:24:16;8.50;99.90
53310;DHT22;39197;53.200;5.792;2024-02-21T05:26:42;8.50;99.90
53310;DHT22;39197;53.200;5.792;2024-02-21T05:29:07;8.30;99.90
53310;DHT22;39197;53.200;5.792;2024-02-21T05:34:17;8.40;99.90
53310;DHT22;39197;53.200;5.792;2024-02-21T05:36:43;8.50;99.90
53310;DHT22;39197;53.200;5.792;2024-02-21T05:39:09;8.50;99.90
53310;DHT22;39197;53.200;5.792;2024-02-21T05:41:35;8.60;99.90
53310;DHT22;39197;53.200;5.792;2024-02-21T05:44:01;8.50;99.90
53310;DHT22;39197;53.200;5.792;2024-02-21T05:46:26;8.40;99.90
53310;DHT22;39197;53.200;5.792;2024-02-21T05:48:52;8.40;99.90
53310;DHT22;39197;53.200;5.792;2024-02-21T05:51:18;8.40;99.90
53310;DHT22;39197;53.200;5.792;2024-02-21T05:53:43;8.30;99.90
53310;DHT22;39197;53.200;5.792;2024-02-21T05:56:13;8.40;99.90
53310;DHT22;39197;53.200;5.792;2024-02-21T05:58:39;8.30;99.90
53310;DHT22;39197;53.200;5.792;2024-02-21T06:01:05;8.40;99.90
53310;DHT22;39197;53.200;5.792;2024-02-21T06:03:33;8.40;99.90
53310;DHT22;39197;53.200;5.792;2024-02-21T06:06:02;8.40;99.90
53310;DHT22;39197;53.200;5.792;2024-02-21T06:08:28;8.40;99.90
53310;DHT22;39197;53.200;5.792;2024-02-21T06:10:54;8.30;99.90
53310;DHT22;39197;53.200;5.792;2024-02-21T06:13:29;8.40;99.90
53310;DHT22;39197;53.200;5.792;2024-02-21T06:15:54;8.30;99.90
53310;DHT22;39197;53.200;5.792;2024-02-21T06:18:20;8.30;99.90
53310;DHT22;39197;53.200;5.792;2024-02-21T06:20:47;8.30;99.90
53310;DHT22;39197;53.200;5.792;2024-02-21T06:23:16;8.30;99.90
53310;DHT22;39197;53.200;5.792;2024-02-21T06:25:42;8.40;99.90
53310;DHT22;39197;53.200;5.792;2024-02-21T06:28:08;8.30;99.90
53310;DHT22;39197;53.200;5.792;2024-02-21T06:30:34;8.30;99.90
53310;DHT22;39197;53.200;5.792;2024-02-21T06:33:00;8.30;99.90
53310;DHT22;39197;53.200;5.792;2024-02-21T06:35:28;8.40;99.90
53310;DHT22;39197;53.200;5.792;2024-02-21T06:37:53;8.50;99.90
53310;DHT22;39197;53.200;5.792;2024-02-21T06:40:23;8.40;99.90
53310;DHT22;39197;53.200;5.792;2024-02-21T06:42:49;8.40;99.90
53310;DHT22;39197;53.200;5.792;2024-02-21T06:45:15;8.40;99.90
53310;DHT22;39197;53.200;5.792;2024-02-21T06:47:41;8.40;99.90
53310;DHT22;39197;53.200;5.792;2024-02-21T06:50:06;8.40;99.90
53310;DHT22;39197;53.200;5.792;2024-02-21T06:52:32;8.50;99.90
53310;DHT22;39197;53.200;5.792;2024-02-21T06:54:58;8.40;99.90
53310;DHT22;39197;53.200;5.792;2024-02-21T06:57:23;8.50;99.90
53310;DHT22;39197;53.200;5.792;2024-02-21T06:59:49;8.50;99.90
53310;DHT22;39197;53.200;5.792;2024-02-21T07:02:14;8.40;99.90
53310;DHT22;39197;53.200;5.792;2024-02-21T07:04:40;8.50;99.90
53310;DHT22;39197;53.200;5.792;2024-02-21T07:07:06;8.40;99.90
53310;DHT22;39197;53.200;5.792;2024-02-21T07:09:31;8.30;99.90
53310;DHT22;39197;53.200;5.792;2024-02-21T07:12:00;8.40;99.90
53310;DHT22;39197;53.200;5.792;2024-02-21T07:14:28;8.40;99.90
53310;DHT22;39197;53.200;5.792;2024-02-21T07:16:53;8.40;99.90
53310;DHT22;39197;53.200;5.792;2024-02-21T07:19:19;8.40;99.90
53310;DHT22;39197;53.200;5.792;2024-02-21T07:21:45;8.50;99.90
53310;DHT22;39197;53.200;5.792;2024-02-21T07:24:10;8.40;99.90
53310;DHT22;39197;53.200;5.792;2024-02-21T07:26:36;8.50;99.90
53310;DHT22;39197;53.200;5.792;2024-02-21T07:29:02;8.40;99.90
53310;DHT22;39197;53.200;5.792;2024-02-21T07:31:27;8.50;99.90
53310;DHT22;39197;53.200;5.792;2024-02-21T07:33:53;8.60;99.90
53310;DHT22;39197;53.200;5.792;2024-02-21T07:36:29;8.60;99.90
53310;DHT22;39197;53.200;5.792;2024-02-21T07:38:58;8.40;99.90
53310;DHT22;39197;53.200;5.792;2024-02-21T07:41:24;8.40;99.90
53310;DHT22;39197;53.200;5.792;2024-02-21T07:43:50;8.40;99.90
53310;DHT22;39197;53.200;5.792;2024-02-21T07:46:16;8.50;99.90
53310;DHT22;39197;53.200;5.792;2024-02-21T07:48:41;8.50;99.90
53310;DHT22;39197;53.200;5.792;2024-02-21T07:51:07;8.50;99.90
53310;DHT22;39197;53.200;5.792;2024-02-21T07:53:32;8.50;99.90
53310;DHT22;39197;53.200;5.792;2024-02-21T07:55:58;8.50;99.90
53310;DHT22;39197;53.200;5.792;2024-02-21T07:58:23;8.50;99.90
53310;DHT22;39197;53.200;5.792;2024-02-21T08:00:49;8.50;99.90
53310;DHT22;39197;53.200;5.792;2024-02-21T08:03:15;8.50;99.90
53310;DHT22;39197;53.200;5.792;2024-02-21T08:05:43;8.60;99.90
53310;DHT22;39197;53.200;5.792;2024-02-21T08:08:08;8.40;99.90
53310;DHT22;39197;53.200;5.792;2024-02-21T08:10:34;8.40;99.90
53310;DHT22;39197;53.200;5.792;2024-02-21T08:13:00;8.50;99.90
53310;DHT22;39197;53.200;5.792;2024-02-21T08:15:25;8.50;99.90
53310;DHT22;39197;53.200;5.792;2024-02-21T08:17:55;8.50;99.90
53310;DHT22;39197;53.200;5.792;2024-02-21T08:20:25;8.30;99.90
53310;DHT22;39197;53.200;5.792;2024-02-21T08:22:50;8.50;99.90
53310;DHT22;39197;53.200;5.792;2024-02-21T08:25:16;8.40;99.90
53310;DHT22;39197;53.200;5.792;2024-02-21T08:27:41;8.40;99.90
53310;DHT22;39197;53.200;5.792;2024-02-21T08:30:07;8.50;99.90
53310;DHT22;39197;53.200;5.792;2024-02-21T08:32:33;8.50;99.90
53310;DHT22;39197;53.200;5.792;2024-02-21T08:35:01;8.40;99.90
53310;DHT22;39197;53.200;5.792;2024-02-21T08:37:29;8.50;99.90
53310;DHT22;39197;53.200;5.792;2024-02-21T08:39:55;8.60;99.90
53310;DHT22;39197;53.200;5.792;2024-02-21T08:42:20;8.50;99.90
53310;DHT22;39197;53.200;5.792;2024-02-21T08:44:46;8.60;99.90
53310;DHT22;39197;53.200;5.792;2024-02-21T08:47:12;8.60;99.90
53310;DHT22;39197;53.200;5.792;2024-02-21T08:49:37;8.50;99.90
53310;DHT22;39197;53.200;5.792;2024-02-21T08:52:03;8.70;99.90
53310;DHT22;39197;53.200;5.792;2024-02-21T08:54:29;8.70;99.90
53310;DHT22;39197;53.200;5.792;2024-02-21T08:56:55;8.70;99.90
53310;DHT22;39197;53.200;5.792;2024-02-21T08:59:22;8.80;99.90
53310;DHT22;39197;53.200;5.792;2024-02-21T09:01:47;8.70;99.90
53310;DHT22;39197;53.200;5.792;2024-02-21T09:04:13;8.70;99.90
53310;DHT22;39197;53.200;5.792;2024-02-21T09:06:38;8.70;99.90
53310;DHT22;39197;53.200;5.792;2024-02-21T09:09:08;8.80;99.90
53310;DHT22;39197;53.200;5.792;2024-02-21T09:11:35;8.70;99.90
53310;DHT22;39197;53.200;5.792;2024-02-21T09:14:01;8.70;99.90
53310;DHT22;39197;53.200;5.792;2024-02-21T09:16:32;8.80;99.90
53310;DHT22;39197;53.200;5.792;2024-02-21T09:18:58;8.80;99.90
53310;DHT22;39197;53.200;5.792;2024-02-21T09:21:23;8.80;99.90
53310;DHT22;39197;53.200;5.792;2024-02-21T09:23:50;8.70;99.90
53310;DHT22;39197;53.200;5.792;2024-02-21T09:26:16;8.80;99.90
53310;DHT22;39197;53.200;5.792;2024-02-21T09:28:43;8.80;99.90
53310;DHT22;39197;53.200;5.792;2024-02-21T09:31:09;8.90;99.90
53310;DHT22;39197;53.200;5.792;2024-02-21T09:33:35;8.80;99.90
53310;DHT22;39197;53.200;5.792;2024-02-21T09:36:01;8.90;99.90
53310;DHT22;39197;53.200;5.792;2024-02-21T09:38:26;9.00;99.90
53310;DHT22;39197;53.200;5.792;2024-02-21T09:40:59;9.10;99.90
53310;DHT22;39197;53.200;5.792;2024-02-21T09:43:26;9.00;99.90
53310;DHT22;39197;53.200;5.792;2024-02-21T09:45:55;9.10;99.90
53310;DHT22;39197;53.200;5.792;2024-02-21T09:50:54;9.00;99.90
53310;DHT22;39197;53.200;5.792;2024-02-21T09:53:24;9.20;99.90
53310;DHT22;39197;53.200;5.792;2024-02-21T09:55:50;9.20;99.90
53310;DHT22;39197;53.200;5.792;2024-02-21T09:58:16;9.10;99.90
53310;DHT22;39197;53.200;5.792;2024-02-21T10:00:42;9.10;99.90
53310;DHT22;39197;53.200;5.792;2024-02-21T10:03:08;9.10;99.90
53310;DHT22;39197;53.200;5.792;2024-02-21T10:05:37;9.20;99.90
53310;DHT22;39197;53.200;5.792;2024-02-21T10:08:04;9.20;99.90
53310;DHT22;39197;53.200;5.792;2024-02-21T10:10:29;9.20;99.90
53310;DHT22;39197;53.200;5.792;2024-02-21T10:12:56;9.20;99.90
53310;DHT22;39197;53.200;5.792;2024-02-21T10:15:22;9.10;99.90
53310;DHT22;39197;53.200;5.792;2024-02-21T10:17:58;9.20;99.90
53310;DHT22;39197;53.200;5.792;2024-02-21T10:20:25;9.30;99.90
53310;DHT22;39197;53.200;5.792;2024-02-21T10:23:01;9.30;99.90
53310;DHT22;39197;53.200;5.792;2024-02-21T10:25:27;9.20;99.90
53310;DHT22;39197;53.200;5.792;2024-02-21T10:27:53;9.30;99.90
53310;DHT22;39197;53.200;5.792;2024-02-21T10:30:19;9.40;99.90
53310;DHT22;39197;53.200;5.792;2024-02-21T10:32:55;9.40;99.90
53310;DHT22;39197;53.200;5.792;2024-02-21T10:35:33;9.30;99.90
53310;DHT22;39197;53.200;5.792;2024-02-21T10:38:00;9.30;99.90
53310;DHT22;39197;53.200;5.792;2024-02-21T10:40:27;9.30;99.90
53310;DHT22;39197;53.200;5.792;2024-02-21T10:42:59;9.30;99.90
53310;DHT22;39197;53.200;5.792;2024-02-21T10:45:30;9.30;99.90
53310;DHT22;39197;53.200;5.792;2024-02-21T10:48:24;9.30;99.90
53310;DHT22;39197;53.200;5.792;2024-02-21T10:51:12;9.30;99.90
53310;DHT22;39197;53.200;5.792;2024-02-21T10:54:01;9.20;99.90
53310;DHT22;39197;53.200;5.792;2024-02-21T10:56:31;9.30;99.90
53310;DHT22;39197;53.200;5.792;2024-02-21T10:59:02;9.30;99.90
53310;DHT22;39197;53.200;5.792;2024-02-21T11:01:31;9.30;99.90
53310;DHT22;39197;53.200;5.792;2024-02-21T11:04:03;9.40;99.90
53310;DHT22;39197;53.200;5.792;2024-02-21T11:06:29;9.40;99.90
53310;DHT22;39197;53.200;5.792;2024-02-21T11:09:03;9.30;99.90
53310;DHT22;39197;53.200;5.792;2024-02-21T11:11:30;9.20;99.90
53310;DHT22;39197;53.200;5.792;2024-02-21T11:14:21;9.30;99.90
53310;DHT22;39197;53.200;5.792;2024-02-21T11:16:47;9.20;99.90
53310;DHT22;39197;53.200;5.792;2024-02-21T11:19:24;9.30;99.90
53310;DHT22;39197;53.200;5.792;2024-02-21T11:21:51;9.30;99.90
53310;DHT22;39197;53.200;5.792;2024-02-21T11:24:30;9.20;99.90
53310;DHT22;39197;53.200;5.792;2024-02-21T11:27:07;9.20;99.90
53310;DHT22;39197;53.200;5.792;2024-02-21T11:29:33;9.20;99.90
53310;DHT22;39197;53.200;5.792;2024-02-21T11:32:09;9.20;99.90
53310;DHT22;39197;53.200;5.792;2024-02-21T11:34:36;9.20;99.90
53310;DHT22;39197;53.200;5.792;2024-02-21T11:37:02;9.20;99.90
53310;DHT22;39197;53.200;5.792;2024-02-21T11:39:38;9.20;99.90
53310;DHT22;39197;53.200;5.792;2024-02-21T11:42:05;9.20;99.90
53310;DHT22;39197;53.200;5.792;2024-02-21T11:44:33;9.20;99.90
53310;DHT22;39197;53.200;5.792;2024-02-21T11:46:59;9.30;99.90
53310;DHT22;39197;53.200;5.792;2024-02-21T11:49:25;9.20;99.90
53310;DHT22;39197;53.200;5.792;2024-02-21T11:52:02;9.10;99.90
53310;DHT22;39197;53.200;5.792;2024-02-21T11:54:31;9.10;99.90
53310;DHT22;39197;53.200;5.792;2024-02-21T11:56:57;9.20;99.90
53310;DHT22;39197;53.200;5.792;2024-02-21T11:59:23;9.10;99.90
53310;DHT22;39197;53.200;5.792;2024-02-21T12:01:49;9.20;99.90
53310;DHT22;39197;53.200;5.792;2024-02-21T12:04:15;9.30;99.90
53310;DHT22;39197;53.200;5.792;2024-02-21T12:06:44;9.30;99.90
53310;DHT22;39197;53.200;5.792;2024-02-21T12:09:09;9.30;99.90
53310;DHT22;39197;53.200;5.792;2024-02-21T12:11:35;9.40;99.90
53310;DHT22;39197;53.200;5.792;2024-02-21T12:14:04;9.30;99.90
53310;DHT22;39197;53.200;5.792;2024-02-21T12:16:34;9.30;99.90
53310;DHT22;39197;53.200;5.792;2024-02-21T12:19:00;9.30;99.90
53310;DHT22;39197;53.200;5.792;2024-02-21T12:21:26;9.30;99.90
53310;DHT22;39197;53.200;5.792;2024-02-21T12:23:54;9.40;99.90
53310;DHT22;39197;53.200;5.792;2024-02-21T12:26:20;9.40;99.90
53310;DHT22;39197;53.200;5.792;2024-02-21T12:28:46;9.50;99.90
53310;DHT22;39197;53.200;5.792;2024-02-21T12:31:12;9.60;99.90
53310;DHT22;39197;53.200;5.792;2024-02-21T12:33:38;9.40;99.90
53310;DHT22;39197;53.200;5.792;2024-02-21T12:36:04;9.50;99.90
53310;DHT22;39197;53.200;5.792;2024-02-21T12:38:29;9.40;99.90
53310;DHT22;39197;53.200;5.792;2024-02-21T12:40:55;9.40;99.90
53310;DHT22;39197;53.200;5.792;2024-02-21T12:43:23;9.40;99.90
53310;DHT22;39197;53.200;5.792;2024-02-21T12:45:49;9.30;99.90
53310;DHT22;39197;53.200;5.792;2024-02-21T12:48:14;9.30;99.90
53310;DHT22;39197;53.200;5.792;2024-02-21T12:50:48;9.40;99.90
53310;DHT22;39197;53.200;5.792;2024-02-21T12:53:15;9.40;99.90
53310;DHT22;39197;53.200;5.792;2024-02-21T12:55:41;9.40;99.90
53310;DHT22;39197;53.200;5.792;2024-02-21T12:58:06;9.40;99.90
53310;DHT22;39197;53.200;5.792;2024-02-21T13:00:33;9.50;99.90
53310;DHT22;39197;53.200;5.792;2024-02-21T13:02:58;9.50;99.90
53310;DHT22;39197;53.200;5.792;2024-02-21T13:05:24;9.60;99.90
53310;DHT22;39197;53.200;5.792;2024-02-21T13:07:49;9.70;99.90
53310;DHT22;39197;53.200;5.792;2024-02-21T13:10:15;9.70;99.90
53310;DHT22;39197;53.200;5.792;2024-02-21T13:12:41;9.70;99.90
53310;DHT22;39197;53.200;5.792;2024-02-21T13:15:07;9.70;99.90
53310;DHT22;39197;53.200;5.792;2024-02-21T13:17:32;9.70;99.90
53310;DHT22;39197;53.200;5.792;2024-02-21T13:19:58;9.80;99.90
53310;DHT22;39197;53.200;5.792;2024-02-21T13:22:24;9.80;99.90
53310;DHT22;39197;53.200;5.792;2024-02-21T13:24:52;9.80;99.90
53310;DHT22;39197;53.200;5.792;2024-02-21T13:27:17;9.80;99.90
53310;DHT22;39197;53.200;5.792;2024-02-21T13:29:43;9.70;99.90
53310;DHT22;39197;53.200;5.792;2024-02-21T13:32:09;9.70;99.90
53310;DHT22;39197;53.200;5.792;2024-02-21T13:34:34;9.60;99.90
53310;DHT22;39197;53.200;5.792;2024-02-21T13:37:00;9.60;99.90
53310;DHT22;39197;53.200;5.792;2024-02-21T13:39:25;9.60;99.90
53310;DHT22;39197;53.200;5.792;2024-02-21T13:41:51;9.60;99.90
53310;DHT22;39197;53.200;5.792;2024-02-21T13:44:17;9.50;99.90
53310;DHT22;39197;53.200;5.792;2024-02-21T13:46:42;9.60;99.90
53310;DHT22;39197;53.200;5.792;2024-02-21T13:49:08;9.50;99.90
53310;DHT22;39197;53.200;5.792;2024-02-21T13:51:34;9.50;99.90
53310;DHT22;39197;53.200;5.792;2024-02-21T13:54:02;9.60;99.90
53310;DHT22;39197;53.200;5.792;2024-02-21T13:56:29;9.60;99.90
53310;DHT22;39197;53.200;5.792;2024-02-21T13:58:54;9.50;99.90
53310;DHT22;39197;53.200;5.792;2024-02-21T14:01:20;9.60;99.90
53310;DHT22;39197;53.200;5.792;2024-02-21T14:03:46;9.50;99.90
53310;DHT22;39197;53.200;5.792;2024-02-21T14:06:11;9.60;99.90
53310;DHT22;39197;53.200;5.792;2024-02-21T14:08:37;9.60;99.90
53310;DHT22;39197;53.200;5.792;2024-02-21T14:11:05;9.60;99.90
53310;DHT22;39197;53.200;5.792;2024-02-21T14:13:31;9.60;99.90
53310;DHT22;39197;53.200;5.792;2024-02-21T14:15:57;9.40;99.90
53310;DHT22;39197;53.200;5.792;2024-02-21T14:18:22;9.50;99.90
53310;DHT22;39197;53.200;5.792;2024-02-21T14:20:48;9.50;99.90
53310;DHT22;39197;53.200;5.792;2024-02-21T14:23:14;9.50;99.90
53310;DHT22;39197;53.200;5.792;2024-02-21T14:25:39;9.40;99.90
53310;DHT22;39197;53.200;5.792;2024-02-21T14:28:07;9.40;99.90
53310;DHT22;39197;53.200;5.792;2024-02-21T14:30:35;9.40;99.90
53310;DHT22;39197;53.200;5.792;2024-02-21T14:33:00;9.30;99.90
53310;DHT22;39197;53.200;5.792;2024-02-21T14:35:26;9.40;99.90
53310;DHT22;39197;53.200;5.792;2024-02-21T14:37:52;9.40;99.90
53310;DHT22;39197;53.200;5.792;2024-02-21T14:40:22;9.30;99.90
53310;DHT22;39197;53.200;5.792;2024-02-21T14:42:48;9.40;99.90
53310;DHT22;39197;53.200;5.792;2024-02-21T14:45:14;9.40;99.90
53310;DHT22;39197;53.200;5.792;2024-02-21T14:47:39;9.40;99.90
53310;DHT22;39197;53.200;5.792;2024-02-21T14:50:05;9.30;99.90
53310;DHT22;39197;53.200;5.792;2024-02-21T14:52:33;9.40;99.90
53310;DHT22;39197;53.200;5.792;2024-02-21T14:55:00;9.30;99.90
53310;DHT22;39197;53.200;5.792;2024-02-21T14:57:28;9.30;99.90
53310;DHT22;39197;53.200;5.792;2024-02-21T14:59:53;9.40;99.90
53310;DHT22;39197;53.200;5.792;2024-02-21T15:02:22;9.30;99.90
53310;DHT22;39197;53.200;5.792;2024-02-21T15:04:48;9.30;99.90
53310;DHT22;39197;53.200;5.792;2024-02-21T15:07:14;9.30;99.90
53310;DHT22;39197;53.200;5.792;2024-02-21T15:09:39;9.30;99.90
53310;DHT22;39197;53.200;5.792;2024-02-21T15:12:05;9.30;99.90
53310;DHT22;39197;53.200;5.792;2024-02-21T15:14:31;9.30;99.90
53310;DHT22;39197;53.200;5.792;2024-02-21T15:16:57;9.30;99.90
53310;DHT22;39197;53.200;5.792;2024-02-21T15:19:22;9.30;99.90
53310;DHT22;39197;53.200;5.792;2024-02-21T15:21:48;9.30;99.90
53310;DHT22;39197;53.200;5.792;2024-02-21T15:24:14;9.20;99.90
53310;DHT22;39197;53.200;5.792;2024-02-21T15:26:39;9.30;99.90
53310;DHT22;39197;53.200;5.792;2024-02-21T15:29:05;9.10;99.90
53310;DHT22;39197;53.200;5.792;2024-02-21T15:31:31;9.20;99.90
53310;DHT22;39197;53.200;5.792;2024-02-21T15:33:56;9.10;99.90
53310;DHT22;39197;53.200;5.792;2024-02-21T15:36:23;9.10;99.90
53310;DHT22;39197;53.200;5.792;2024-02-21T15:38:48;9.10;99.90
53310;DHT22;39197;53.200;5.792;2024-02-21T15:41:14;9.00;99.90
53310;DHT22;39197;53.200;5.792;2024-02-21T15:43:40;9.10;99.90
53310;DHT22;39197;53.200;5.792;2024-02-21T15:46:06;9.00;99.90